createdAt,value
2017-11-26T00:00:49.887Z,100944.89
2017-11-26T00:03:17.525Z,100946.42
2017-11-26T00:05:45.120Z,100952.19
2017-11-26T00:08:12.710Z,100941.45
2017-11-26T00:10:40.343Z,100943.07
2017-11-26T00:13:07.955Z,100949.80
2017-11-26T00:15:35.545Z,100954.66
2017-11-26T00:18:03.174Z,100949.61
2017-11-26T00:20:30.768Z,100959.27
2017-11-26T00:22:58.694Z,100960.95
2017-11-26T00:25:26.346Z,100965.16
2017-11-26T00:27:54.023Z,100960.05
2017-11-26T00:30:21.606Z,100960.16
2017-11-26T00:32:49.249Z,100962.58
2017-11-26T00:35:16.844Z,100967.97
2017-11-26T00:37:44.734Z,100975.58
2017-11-26T00:40:12.353Z,100969.58
2017-11-26T00:42:39.945Z,100969.12
2017-11-26T00:45:07.569Z,100974.74
2017-11-26T00:47:35.205Z,100974.40
2017-11-26T00:50:02.789Z,100988.06
2017-11-26T00:52:30.650Z,100988.12
2017-11-26T00:54:58.274Z,100986.39
2017-11-26T00:57:25.882Z,100995.11
2017-11-26T00:59:53.494Z,100995.59
2017-11-26T01:02:21.129Z,101005.88
2017-11-26T01:04:48.718Z,101014.91
2017-11-26T01:07:16.632Z,101019.20
2017-11-26T01:09:44.263Z,101021.65
2017-11-26T01:12:11.837Z,101016.49
2017-11-26T01:14:39.418Z,101018.17
2017-11-26T01:17:07.044Z,101022.55
2017-11-26T01:19:34.629Z,101020.33
2017-11-26T01:22:02.217Z,101026.15
2017-11-26T01:24:30.169Z,101025.12
2017-11-26T01:26:57.767Z,101023.47
2017-11-26T01:29:25.711Z,101029.45
2017-11-26T01:31:53.351Z,101023.69
2017-11-26T01:34:20.954Z,101026.13
2017-11-26T01:36:48.544Z,101036.30
2017-11-26T01:39:16.179Z,101030.66
2017-11-26T01:41:43.781Z,101037.27
2017-11-26T01:44:11.479Z,101041.01
2017-11-26T01:46:39.446Z,101049.16
2017-11-26T01:49:07.027Z,101051.47
2017-11-26T01:51:34.619Z,101064.55
2017-11-26T01:54:02.269Z,101054.23
2017-11-26T01:56:29.859Z,101057.87
2017-11-26T01:58:57.458Z,101056.91
2017-11-26T02:01:25.109Z,101062.19
2017-11-26T02:03:58.733Z,101065.48
2017-11-26T02:06:26.350Z,101062.81
2017-11-26T02:08:53.944Z,101065.58
2017-11-26T02:11:21.533Z,101065.61
2017-11-26T02:13:49.169Z,101065.22
2017-11-26T02:16:16.754Z,101062.40
2017-11-26T02:18:44.337Z,101066.92
2017-11-26T02:21:12.257Z,101060.09
2017-11-26T02:23:39.886Z,101064.22
2017-11-26T02:26:07.505Z,101056.84
2017-11-26T02:28:35.135Z,101070.03
2017-11-26T02:31:02.718Z,101069.36
2017-11-26T02:33:42.221Z,101065.72
2017-11-26T02:36:19.264Z,101071.95
2017-11-26T02:38:46.905Z,101071.30
2017-11-26T02:41:14.501Z,101076.19
2017-11-26T02:43:42.095Z,101079.64
2017-11-26T02:46:09.734Z,101081.68
2017-11-26T02:48:37.653Z,101077.91
2017-11-26T02:51:05.517Z,101080.27
2017-11-26T02:53:33.144Z,101078.05
2017-11-26T02:56:00.745Z,101086.55
2017-11-26T02:58:28.606Z,101096.38
2017-11-26T03:00:56.229Z,101095.20
2017-11-26T03:03:24.137Z,101098.94
2017-11-26T03:05:51.764Z,101100.50
2017-11-26T03:08:19.403Z,101100.30
2017-11-26T03:10:46.986Z,101102.98
2017-11-26T03:13:14.581Z,101106.33
2017-11-26T03:15:42.210Z,101100.31
2017-11-26T03:18:09.844Z,101105.89
2017-11-26T03:20:37.427Z,101103.80
2017-11-26T03:23:05.066Z,101102.83
2017-11-26T03:25:32.657Z,101105.97
2017-11-26T03:28:00.246Z,101112.03
2017-11-26T03:30:27.869Z,101106.91
2017-11-26T03:32:55.465Z,101109.75
2017-11-26T03:35:23.077Z,101107.89
2017-11-26T03:37:50.998Z,101109.67
2017-11-26T03:40:18.579Z,101120.90
2017-11-26T03:42:46.164Z,101119.50
2017-11-26T03:45:13.801Z,101121.30
2017-11-26T03:47:41.394Z,101118.44
2017-11-26T03:50:09.006Z,101124.24
2017-11-26T03:52:36.888Z,101125.45
2017-11-26T03:55:04.477Z,101122.84
2017-11-26T03:57:32.066Z,101123.62
2017-11-26T03:59:59.717Z,101128.63
2017-11-26T04:02:27.309Z,101126.80
2017-11-26T04:04:55.411Z,101117.99
2017-11-26T04:07:23.047Z,101122.14
2017-11-26T04:09:50.636Z,101125.79
2017-11-26T04:12:18.216Z,101120.16
2017-11-26T04:14:46.165Z,101120.16
2017-11-26T04:17:14.030Z,101131.17
2017-11-26T04:19:41.608Z,101133.02
2017-11-26T04:22:09.245Z,101130.22
2017-11-26T04:24:36.841Z,101136.92
2017-11-26T04:27:04.450Z,101131.39
2017-11-26T04:29:32.090Z,101137.06
2017-11-26T04:31:59.692Z,101138.97
2017-11-26T04:34:27.281Z,101142.80
2017-11-26T04:36:54.910Z,101152.17
2017-11-26T04:39:22.491Z,101150.85
2017-11-26T04:41:50.113Z,101153.81
2017-11-26T04:44:17.770Z,101154.19
2017-11-26T04:46:45.360Z,101164.02
2017-11-26T04:49:12.958Z,101159.54
2017-11-26T04:51:40.580Z,101155.95
2017-11-26T04:54:08.466Z,101153.12
2017-11-26T04:56:36.066Z,101158.75
2017-11-26T04:59:03.684Z,101154.86
2017-11-26T05:01:31.534Z,101154.75
2017-11-26T05:03:59.424Z,101160.19
2017-11-26T05:06:27.058Z,101156.23
2017-11-26T05:08:54.698Z,101160.41
2017-11-26T05:11:22.285Z,101158.25
2017-11-26T05:13:49.917Z,101166.36
2017-11-26T05:16:17.842Z,101170.42
2017-11-26T05:18:45.445Z,101174.59
2017-11-26T05:21:13.374Z,101176.17
2017-11-26T05:23:40.961Z,101177.59
2017-11-26T05:26:08.543Z,101182.87
2017-11-26T05:28:36.468Z,101185.02
2017-11-26T05:31:04.053Z,101189.72
2017-11-26T05:33:31.646Z,101186.81
2017-11-26T05:35:59.559Z,101186.62
2017-11-26T05:38:27.159Z,101190.77
2017-11-26T05:40:54.768Z,101190.77
2017-11-26T05:43:22.402Z,101191.03
2017-11-26T05:45:50.012Z,101193.89
2017-11-26T05:48:17.594Z,101195.45
2017-11-26T05:50:45.214Z,101197.78
2017-11-26T05:53:12.806Z,101195.98
2017-11-26T05:55:40.659Z,101200.08
2017-11-26T05:58:08.283Z,101192.81
2017-11-26T06:00:35.906Z,101185.05
2017-11-26T06:03:03.488Z,101192.28
2017-11-26T06:05:31.110Z,101192.32
2017-11-26T06:07:58.721Z,101198.38
2017-11-26T06:10:26.322Z,101207.28
2017-11-26T06:12:54.197Z,101206.18
2017-11-26T06:15:21.793Z,101203.13
2017-11-26T06:17:49.408Z,101215.41
2017-11-26T06:20:17.034Z,101212.67
2017-11-26T06:22:45.967Z,101214.18
2017-11-26T06:25:13.604Z,101219.43
2017-11-26T06:27:41.249Z,101223.59
2017-11-26T06:30:08.853Z,101223.30
2017-11-26T06:32:36.452Z,101218.22
2017-11-26T06:35:04.085Z,101225.88
2017-11-26T06:37:31.678Z,101231.47
2017-11-26T06:39:59.273Z,101231.27
2017-11-26T06:42:26.912Z,101233.11
2017-11-26T06:44:54.521Z,101232.38
2017-11-26T06:47:22.125Z,101228.53
2017-11-26T06:49:50.074Z,101233.91
2017-11-26T06:52:17.670Z,101230.21
2017-11-26T06:54:45.257Z,101232.23
2017-11-26T06:57:12.881Z,101238.67
2017-11-26T06:59:40.455Z,101238.61
2017-11-26T07:02:08.401Z,101241.62
2017-11-26T07:04:36.068Z,101241.78
2017-11-26T07:07:04.559Z,101247.37
2017-11-26T07:09:32.473Z,101246.30
2017-11-26T07:12:00.595Z,101244.41
2017-11-26T07:14:29.129Z,101255.02
2017-11-26T07:16:57.199Z,101260.73
2017-11-26T07:19:24.917Z,101264.97
2017-11-26T07:21:52.505Z,101263.75
2017-11-26T07:24:20.504Z,101267.13
2017-11-26T07:26:48.519Z,101263.60
2017-11-26T07:29:16.120Z,101262.49
2017-11-26T07:31:43.728Z,101265.19
2017-11-26T07:34:11.370Z,101271.83
2017-11-26T07:36:38.966Z,101273.97
2017-11-26T07:39:06.717Z,101277.52
2017-11-26T07:41:34.353Z,101275.46
2017-11-26T07:44:01.953Z,101275.06
2017-11-26T07:46:29.804Z,101281.91
2017-11-26T07:48:57.445Z,101283.44
2017-11-26T07:51:25.038Z,101279.27
2017-11-26T07:53:54.084Z,101280.91
2017-11-26T07:56:22.139Z,101277.79
2017-11-26T07:58:49.934Z,101277.59
2017-11-26T08:01:17.828Z,101276.74
2017-11-26T08:03:45.792Z,101280.48
2017-11-26T08:06:13.377Z,101285.14
2017-11-26T08:08:41.331Z,101280.84
2017-11-26T08:11:09.306Z,101280.06
2017-11-26T08:13:36.889Z,101284.37
2017-11-26T08:16:04.469Z,101288.55
2017-11-26T08:18:32.089Z,101292.08
2017-11-26T08:20:59.678Z,101290.18
2017-11-26T08:23:27.510Z,101294.50
2017-11-26T08:25:55.141Z,101294.31
2017-11-26T08:28:23.073Z,101297.98
2017-11-26T08:30:50.652Z,101291.04
2017-11-26T08:33:18.286Z,101295.16
2017-11-26T08:35:45.890Z,101304.53
2017-11-26T08:38:13.516Z,101307.70
2017-11-26T08:40:41.246Z,101303.20
2017-11-26T08:43:09.128Z,101302.73
2017-11-26T08:45:36.766Z,101296.09
2017-11-26T08:48:04.402Z,101300.27
2017-11-26T08:50:32.013Z,101294.40
2017-11-26T08:52:59.699Z,101288.53
2017-11-26T08:55:27.478Z,101282.55
2017-11-26T08:57:55.416Z,101283.40
2017-11-26T09:00:23.040Z,101279.97
2017-11-26T09:02:50.706Z,101290.34
2017-11-26T09:05:18.303Z,101292.45
2017-11-26T09:07:47.340Z,101294.90
2017-11-26T09:10:14.996Z,101300.23
2017-11-26T09:12:42.613Z,101298.20
2017-11-26T09:15:10.254Z,101302.03
2017-11-26T09:17:37.907Z,101306.48
2017-11-26T09:20:05.492Z,101312.91
2017-11-26T09:22:33.107Z,101307.50
2017-11-26T09:25:00.914Z,101305.34
2017-11-26T09:27:28.801Z,101295.97
2017-11-26T09:29:56.416Z,101298.31
2017-11-26T09:32:24.053Z,101298.25
2017-11-26T09:34:51.646Z,101298.91
2017-11-26T09:37:19.250Z,101298.98
2017-11-26T09:39:46.892Z,101298.25
2017-11-26T09:42:14.521Z,101294.09
2017-11-26T09:44:42.143Z,101291.08
2017-11-26T09:47:09.789Z,101291.50
2017-11-26T09:49:37.533Z,101282.34
2017-11-26T09:52:05.182Z,101287.19
2017-11-26T09:54:32.832Z,101283.29
2017-11-26T09:57:00.510Z,101281.84
2017-11-26T09:59:28.190Z,101285.98
2017-11-26T10:01:55.870Z,101289.52
2017-11-26T10:04:23.463Z,101292.95
2017-11-26T10:06:51.047Z,101305.08
2017-11-26T10:09:18.708Z,101294.16
2017-11-26T10:11:46.640Z,101295.30
2017-11-26T10:14:14.236Z,101293.85
2017-11-26T10:16:42.189Z,101285.59
2017-11-26T10:19:09.819Z,101291.42
2017-11-26T10:21:37.694Z,101293.02
2017-11-26T10:24:05.334Z,101290.89
2017-11-26T10:26:33.169Z,101279.30
2017-11-26T10:29:00.783Z,101280.48
2017-11-26T10:31:28.410Z,101279.66
2017-11-26T10:33:56.011Z,101278.02
2017-11-26T10:36:23.604Z,101271.89
2017-11-26T10:38:51.475Z,101279.83
2017-11-26T10:41:19.136Z,101272.05
2017-11-26T10:43:46.742Z,101277.50
2017-11-26T10:46:14.746Z,101284.19
2017-11-26T10:48:42.422Z,101284.53
2017-11-26T10:51:10.020Z,101276.86
2017-11-26T10:53:37.660Z,101277.20
2017-11-26T10:56:05.596Z,101279.83
2017-11-26T10:58:33.189Z,101277.38
2017-11-26T11:01:01.087Z,101270.88
2017-11-26T11:03:28.689Z,101265.25
2017-11-26T11:05:56.365Z,101272.41
2017-11-26T11:08:23.994Z,101272.66
2017-11-26T11:10:51.589Z,101277.22
2017-11-26T11:13:19.193Z,101274.70
2017-11-26T11:15:46.835Z,101280.89
2017-11-26T11:18:14.969Z,101282.40
2017-11-26T11:20:42.566Z,101287.09
2017-11-26T11:23:10.863Z,101284.07
2017-11-26T11:25:38.470Z,101290.78
2017-11-26T11:28:06.063Z,101282.53
2017-11-26T11:30:33.681Z,101272.06
2017-11-26T11:33:01.472Z,101276.39
2017-11-26T11:35:29.128Z,101274.50
2017-11-26T11:37:56.796Z,101272.66
2017-11-26T11:40:24.433Z,101278.66
2017-11-26T11:42:52.323Z,101270.55
2017-11-26T11:45:19.961Z,101273.19
2017-11-26T11:47:47.558Z,101268.73
2017-11-26T11:50:15.379Z,101270.48
2017-11-26T11:52:43.081Z,101267.71
2017-11-26T11:55:10.685Z,101264.83
2017-11-26T11:57:38.458Z,101259.25
2017-11-26T12:00:06.091Z,101260.98
2017-11-26T12:02:33.697Z,101258.62
2017-11-26T12:05:01.293Z,101264.04
2017-11-26T12:07:28.943Z,101257.72
2017-11-26T12:09:56.792Z,101269.84
2017-11-26T12:12:24.528Z,101258.49
2017-11-26T12:14:52.150Z,101257.36
2017-11-26T12:17:19.763Z,101259.84
2017-11-26T12:19:47.366Z,101262.00
2017-11-26T12:22:15.035Z,101261.52
2017-11-26T12:24:42.637Z,101257.60
2017-11-26T12:27:10.236Z,101253.81
2017-11-26T12:29:37.902Z,101256.72
2017-11-26T12:32:05.517Z,101252.62
2017-11-26T12:34:33.098Z,101254.23
2017-11-26T12:37:00.831Z,101252.98
2017-11-26T12:39:28.497Z,101252.09
2017-11-26T12:41:56.432Z,101254.06
2017-11-26T12:44:24.148Z,101260.80
2017-11-26T12:46:51.855Z,101263.09
2017-11-26T12:49:19.464Z,101259.36
2017-11-26T12:51:47.161Z,101266.27
2017-11-26T12:54:14.793Z,101274.11
2017-11-26T12:56:42.696Z,101273.86
2017-11-26T12:59:10.361Z,101269.41
2017-11-26T13:01:39.254Z,101278.55
2017-11-26T13:04:06.874Z,101268.80
2017-11-26T13:06:34.551Z,101263.87
2017-11-26T13:09:02.369Z,101269.28
2017-11-26T13:11:30.688Z,101270.02
2017-11-26T13:14:00.438Z,101278.31
2017-11-26T13:16:28.042Z,101273.55
2017-11-26T13:18:55.678Z,101281.25
2017-11-26T13:21:24.220Z,101279.34
2017-11-26T13:23:55.783Z,101277.70
2017-11-26T13:26:23.817Z,101286.19
2017-11-26T13:28:51.509Z,101276.58
2017-11-26T13:31:19.122Z,101282.41
2017-11-26T13:33:47.775Z,101281.73
2017-11-26T13:36:15.413Z,101269.05
2017-11-26T13:38:43.046Z,101279.16
2017-11-26T13:41:10.661Z,101285.00
2017-11-26T13:43:38.267Z,101282.88
2017-11-26T13:46:06.175Z,101279.75
2017-11-26T13:48:33.838Z,101284.80
2017-11-26T13:51:01.793Z,101275.12
2017-11-26T13:53:29.410Z,101279.09
2017-11-26T13:55:57.139Z,101284.02
2017-11-26T13:58:25.655Z,101280.77
2017-11-26T14:00:53.291Z,101287.34
2017-11-26T14:03:21.828Z,101292.22
2017-11-26T14:05:49.822Z,101289.26
2017-11-26T14:08:17.506Z,101289.45
2017-11-26T14:10:45.627Z,101295.34
2017-11-26T14:13:13.321Z,101301.28
2017-11-26T14:15:42.117Z,101298.59
2017-11-26T14:18:09.875Z,101299.36
2017-11-26T14:20:39.263Z,101301.17
2017-11-26T14:23:07.452Z,101312.72
2017-11-26T14:25:35.152Z,101312.48
2017-11-26T14:28:02.855Z,101307.13
2017-11-26T14:30:30.744Z,101299.61
2017-11-26T14:32:58.883Z,101306.53
2017-11-26T14:35:26.557Z,101307.55
2017-11-26T14:37:54.301Z,101304.77
2017-11-26T14:40:22.114Z,101311.28
2017-11-26T14:42:49.731Z,101306.70
2017-11-26T14:45:17.818Z,101304.89
2017-11-26T14:47:45.527Z,101306.45
2017-11-26T14:50:13.168Z,101316.26
2017-11-26T14:52:40.775Z,101313.44
2017-11-26T14:55:08.474Z,101311.74
2017-11-26T14:57:36.066Z,101310.92
2017-11-26T15:00:04.009Z,101316.15
2017-11-26T15:02:31.643Z,101316.13
2017-11-26T15:04:59.243Z,101309.11
2017-11-26T15:07:26.911Z,101315.02
2017-11-26T15:09:54.541Z,101314.34
2017-11-26T15:12:22.434Z,101313.56
2017-11-26T15:14:50.041Z,101321.13
2017-11-26T15:17:17.665Z,101326.73
2017-11-26T15:19:45.267Z,101318.86
2017-11-26T15:22:12.869Z,101327.98
2017-11-26T15:24:40.497Z,101325.69
2017-11-26T15:27:08.118Z,101322.03
2017-11-26T15:29:35.717Z,101330.58
2017-11-26T15:32:04.918Z,101336.65
2017-11-26T15:34:32.601Z,101336.92
2017-11-26T15:37:00.286Z,101331.70
2017-11-26T15:39:27.942Z,101339.09
2017-11-26T15:41:56.276Z,101340.17
2017-11-26T15:44:23.896Z,101340.95
2017-11-26T15:46:51.671Z,101332.13
2017-11-26T15:51:51.587Z,101333.71
2017-11-26T15:54:19.504Z,101331.36
2017-11-26T15:56:48.983Z,101342.91
2017-11-26T15:59:16.638Z,101338.98
2017-11-26T16:01:44.304Z,101339.64
2017-11-26T16:04:12.038Z,101339.70
2017-11-26T16:06:39.705Z,101349.22
2017-11-26T16:09:07.342Z,101351.45
2017-11-26T16:11:34.975Z,101351.84
2017-11-26T16:14:02.601Z,101355.06
2017-11-26T16:16:30.258Z,101350.16
2017-11-26T16:18:57.871Z,101352.65
2017-11-26T16:21:25.518Z,101346.02
2017-11-26T16:23:53.139Z,101356.59
2017-11-26T16:26:20.840Z,101358.58
2017-11-26T16:28:48.465Z,101359.95
2017-11-26T16:31:16.068Z,101360.44
2017-11-26T16:33:43.680Z,101353.70
2017-11-26T16:36:11.341Z,101360.56
2017-11-26T16:38:39.174Z,101354.25
2017-11-26T16:41:06.897Z,101352.53
2017-11-26T16:43:34.655Z,101359.22
2017-11-26T16:46:02.269Z,101364.50
2017-11-26T16:48:29.893Z,101364.66
2017-11-26T16:50:57.686Z,101363.94
2017-11-26T16:53:25.332Z,101363.00
2017-11-26T16:55:53.870Z,101370.22
2017-11-26T16:58:21.993Z,101360.12
2017-11-26T17:00:49.642Z,101369.81
2017-11-26T17:03:17.276Z,101364.53
2017-11-26T17:05:44.939Z,101368.83
2017-11-26T17:08:12.798Z,101357.64
2017-11-26T17:10:40.502Z,101361.67
2017-11-26T17:13:08.434Z,101356.86
2017-11-26T17:15:36.044Z,101360.67
2017-11-26T17:18:03.680Z,101362.36
2017-11-26T17:20:31.389Z,101356.86
2017-11-26T17:22:59.207Z,101362.84
2017-11-26T17:25:27.637Z,101358.06
2017-11-26T17:27:57.129Z,101363.30
2017-11-26T17:30:24.870Z,101367.78
2017-11-26T17:32:52.697Z,101362.99
2017-11-26T17:35:20.347Z,101371.34
2017-11-26T17:37:47.967Z,101369.45
2017-11-26T17:40:17.084Z,101368.19
2017-11-26T17:42:44.747Z,101371.83
2017-11-26T17:45:12.597Z,101373.15
2017-11-26T17:47:40.298Z,101375.89
2017-11-26T17:50:07.933Z,101377.87
2017-11-26T17:52:35.625Z,101375.02
2017-11-26T17:55:04.106Z,101374.25
2017-11-26T17:57:31.850Z,101375.19
2017-11-26T17:59:59.464Z,101370.98
2017-11-26T18:02:27.100Z,101373.50
2017-11-26T18:04:54.855Z,101372.16
2017-11-26T18:07:23.623Z,101374.56
2017-11-26T18:09:51.218Z,101381.66
2017-11-26T18:12:18.997Z,101380.58
2017-11-26T18:14:46.684Z,101375.22
2017-11-26T18:17:14.298Z,101375.23
2017-11-26T18:19:41.954Z,101373.13
2017-11-26T18:22:10.127Z,101377.93
2017-11-26T18:24:37.735Z,101379.70
2017-11-26T18:27:06.368Z,101385.80
2017-11-26T18:29:34.511Z,101383.77
2017-11-26T18:32:02.374Z,101393.49
2017-11-26T18:34:30.212Z,101389.64
2017-11-26T18:36:57.821Z,101393.86
2017-11-26T18:39:25.478Z,101398.28
2017-11-26T18:41:53.165Z,101396.72
2017-11-26T18:44:21.038Z,101407.45
2017-11-26T18:46:48.663Z,101403.54
2017-11-26T18:49:16.638Z,101405.59
2017-11-26T18:51:44.322Z,101405.50
2017-11-26T18:54:13.590Z,101408.92
2017-11-26T18:56:41.678Z,101410.42
2017-11-26T18:59:09.329Z,101407.59
2017-11-26T19:01:36.921Z,101414.90
2017-11-26T19:04:04.559Z,101412.38
2017-11-26T19:06:32.266Z,101411.84
2017-11-26T19:08:59.886Z,101411.02
2017-11-26T19:11:27.534Z,101412.67
2017-11-26T19:13:55.455Z,101406.70
2017-11-26T19:16:24.375Z,101416.05
2017-11-26T19:18:53.917Z,101419.30
2017-11-26T19:21:22.167Z,101421.03
2017-11-26T19:23:49.789Z,101421.57
2017-11-26T19:26:17.430Z,101420.31
2017-11-26T19:28:45.054Z,101417.73
2017-11-26T19:31:12.653Z,101417.97
2017-11-26T19:33:42.002Z,101424.93
2017-11-26T19:36:09.723Z,101428.53
2017-11-26T19:38:38.024Z,101427.30
2017-11-26T19:41:05.741Z,101421.48
2017-11-26T19:43:33.353Z,101429.05
2017-11-26T19:46:00.965Z,101435.00
2017-11-26T19:48:28.664Z,101424.84
2017-11-26T19:50:56.264Z,101427.85
2017-11-26T19:53:23.845Z,101433.20
2017-11-26T19:55:51.476Z,101433.17
2017-11-26T19:58:22.339Z,101427.74
2017-11-26T20:00:50.163Z,101439.37
2017-11-26T20:03:17.818Z,101444.35
2017-11-26T20:05:45.410Z,101441.83
2017-11-26T20:08:13.045Z,101439.84
2017-11-26T20:10:40.725Z,101447.17
2017-11-26T20:13:08.343Z,101453.94
2017-11-26T20:15:35.934Z,101444.86
2017-11-26T20:18:03.587Z,101448.40
2017-11-26T20:20:31.205Z,101448.03
2017-11-26T20:22:59.096Z,101440.77
2017-11-26T20:25:26.725Z,101451.05
2017-11-26T20:27:54.325Z,101450.31
2017-11-26T20:30:21.924Z,101448.23
2017-11-26T20:32:49.560Z,101446.73
2017-11-26T20:35:17.196Z,101445.95
2017-11-26T20:37:44.807Z,101454.22
2017-11-26T20:40:12.471Z,101450.70
2017-11-26T20:42:40.085Z,101449.27
2017-11-26T20:45:07.690Z,101457.55
2017-11-26T20:47:35.320Z,101454.85
2017-11-26T20:50:02.986Z,101461.41
2017-11-26T20:52:30.590Z,101456.17
2017-11-26T20:54:58.227Z,101462.80
2017-11-26T20:57:25.850Z,101458.09
2017-11-26T20:59:53.443Z,101458.94
2017-11-26T21:02:21.121Z,101464.02
2017-11-26T21:04:48.711Z,101453.47
2017-11-26T21:07:16.634Z,101457.88
2017-11-26T21:09:44.299Z,101458.17
2017-11-26T21:12:11.954Z,101454.81
2017-11-26T21:14:39.815Z,101458.78
2017-11-26T21:17:07.672Z,101464.61
2017-11-26T21:19:35.302Z,101455.95
2017-11-26T21:22:02.905Z,101455.47
2017-11-26T21:24:30.678Z,101456.25
2017-11-26T21:26:58.646Z,101450.19
2017-11-26T21:29:26.279Z,101449.89
2017-11-26T21:31:53.921Z,101459.87
2017-11-26T21:34:21.615Z,101451.27
2017-11-26T21:36:49.385Z,101449.83
2017-11-26T21:39:17.069Z,101449.69
2017-11-26T21:41:45.241Z,101447.52
2017-11-26T21:44:13.363Z,101453.47
2017-11-26T21:46:41.081Z,101445.81
2017-11-26T21:49:08.754Z,101443.13
2017-11-26T21:51:36.574Z,101445.18
2017-11-26T21:54:04.355Z,101443.59
2017-11-26T21:56:32.034Z,101441.19
2017-11-26T21:58:59.759Z,101447.37
2017-11-26T22:01:27.531Z,101440.34
2017-11-26T22:03:55.180Z,101450.53
2017-11-26T22:06:23.131Z,101454.85
2017-11-26T22:08:51.147Z,101456.45
2017-11-26T22:11:19.783Z,101453.81
2017-11-26T22:13:47.450Z,101451.98
2017-11-26T22:16:15.491Z,101451.44
2017-11-26T22:18:43.220Z,101455.88
2017-11-26T22:21:10.831Z,101446.33
2017-11-26T22:23:38.453Z,101449.75
2017-11-26T22:26:06.086Z,101449.84
2017-11-26T22:28:33.681Z,101446.89
2017-11-26T22:31:01.315Z,101449.45
2017-11-26T22:33:28.888Z,101446.02
2017-11-26T22:35:56.478Z,101449.52
2017-11-26T22:38:24.106Z,101448.85
2017-11-26T22:40:51.704Z,101439.86
2017-11-26T22:43:19.310Z,101450.87
2017-11-26T22:45:46.942Z,101441.97
2017-11-26T22:48:14.532Z,101442.66
2017-11-26T22:50:42.266Z,101448.44
2017-11-26T22:53:09.910Z,101446.00
2017-11-26T22:55:37.515Z,101433.13
2017-11-26T22:58:05.107Z,101437.16
2017-11-26T23:00:32.741Z,101434.39
2017-11-26T23:03:00.325Z,101443.77
2017-11-26T23:05:27.947Z,101439.80
2017-11-26T23:07:55.577Z,101439.29
2017-11-26T23:10:23.186Z,101440.73
2017-11-26T23:12:50.765Z,101441.94
2017-11-26T23:15:18.411Z,101442.23
2017-11-26T23:17:46.000Z,101447.89
2017-11-26T23:20:13.605Z,101441.28
2017-11-26T23:22:41.242Z,101438.06
2017-11-26T23:25:08.834Z,101434.57
2017-11-26T23:27:36.499Z,101436.86
2017-11-26T23:30:04.585Z,101436.55
2017-11-26T23:32:32.169Z,101435.86
2017-11-26T23:34:59.761Z,101433.67
2017-11-26T23:37:27.385Z,101431.72
2017-11-26T23:39:54.974Z,101429.73
2017-11-26T23:42:22.583Z,101430.00
2017-11-26T23:44:50.212Z,101432.50
2017-11-26T23:47:17.810Z,101436.08
2017-11-26T23:49:45.391Z,101431.66
2017-11-26T23:52:13.018Z,101438.54
2017-11-26T23:54:40.899Z,101433.52
2017-11-26T23:57:08.868Z,101435.56
2017-11-26T23:59:36.490Z,101439.92
